Terminal Aerodrome Forecast
Issued by NWS Sterling, VA

Current Version | Previous Version | Text Only | Print | Product List | Glossary On
Versions: 1 2 3 4 5 6 7 8 9 10 11 12 13 14 15 16 17 18 19 20 21 22 23 24 25 26 27
000
FTUS41 KLWX 301122
TAFIAD
TAF
KIAD 301122Z 3012/3118 11005KT 1SM -DZ BR OVC004
     FM301600 13005KT P6SM OVC015
     FM301900 14007KT P6SM VCTS BKN040CB
     FM302300 15004KT P6SM BKN040
     FM310600 VRB03KT 5SM BR BKN250
     FM310900 VRB03KT 3SM BR BKN010
     FM311500 28006KT P6SM BKN070=

USA.gov is the U.S. government's official web portal to all federal, state and local government web resources and services.